• Join FlightAware (Why Join?)
  • Login
  • US Flag 
01:31PM EDT


 

Airport Tracker/Info


-or-


 

Live Flight TrackerFlight Track Log ✈ MTN8345 ✈ 31-Jan-2014 ✈ KPKB - KIND

Flight Track Log - Related Links

Times and Time Zones

All times are in EST time to prevent confusion due to time zone crossing. See the MTN8345 flight status page for this flight to view local times or setup timezone preferences in your user account.

Time Position Orientation Groundspeed Altitude Reporting Facility
EST Latitude Longitude Course Direction KTS MPH feet Rate Location/Type
07:29AM 39.3431 -81.5064 273° West 103 119 3,200  Level Indianapolis Center
07:30AM 39.3467 -81.5439 277° West 104 120 4,100 840 Climbing Indianapolis Center
07:31AM 39.3508 -81.5814 278° West 105 121 5,000 840 Climbing Indianapolis Center
07:32AM 39.3500 -81.6055 270° West  Level FlightAware Approximate
07:32AM 39.3544 -81.6161 278° West 103 119 5,800  Level Indianapolis Center
07:33AM 39.3529 -81.6488 277° West  Level FlightAware Approximate
07:33AM 39.3583 -81.6567 277° West 105 121 6,000  Level Indianapolis Center
07:34AM 39.3628 -81.7036 277° West 116 133 6,000  Level Indianapolis Center
07:35AM 39.3675 -81.7511 277° West 126 145 6,000  Level Indianapolis Center
07:36AM 39.3717 -81.7983 277° West 130 150 6,000  Level Indianapolis Center
07:37AM 39.3761 -81.8450 277° West 131 151 6,000  Level Indianapolis Center
07:38AM 39.3814 -81.8908 278° West 131 151 6,000  Level Indianapolis Center
07:39AM 39.3856 -81.9361 277° West 129 148 6,000  Level Indianapolis Center
07:40AM 39.3906 -81.9933 276° West 130 150 6,000  Level Indianapolis Center
07:41AM 39.3942 -82.0411 276° West 132 152 6,000  Level Indianapolis Center
07:42AM 39.3994 -82.0886 278° West 134 154 6,000 -60 Level Indianapolis Center
07:43AM 39.4044 -82.1350 278° West 132 152 5,900 -60 Descending Indianapolis Center
07:44AM 39.4089 -82.1839 277° West 134 154 5,900  Level Indianapolis Center
07:45AM 39.4131 -82.2322 276° West 136 157 5,900  Level Indianapolis Center
07:46AM 39.4178 -82.2794 277° West 134 154 5,900  Level Indianapolis Center
07:46AM 39.4206 -82.2953 283° West 133 153 5,900  Level Indianapolis Center
07:47AM 39.4219 -82.3275 273° West 134 154 5,900  Level Indianapolis Center
07:47AM 39.4231 -82.3361 279° West 136 157 5,900  Level Indianapolis Center
07:48AM 39.4261 -82.3747 276° West 134 154 5,900  Level Indianapolis Center
07:48AM 39.4289 -82.3886 285° West 133 153 5,900  Level Indianapolis Center
07:49AM 39.4300 -82.4247 272° West 137 158 5,900  Level Indianapolis Center
07:49AM 39.4328 -82.4378 285° West 138 159 5,900  Level Indianapolis Center
07:50AM 39.4350 -82.4742 275° West 138 159 5,900  Level Indianapolis Center
07:50AM 39.4367 -82.4872 279° West 141 162 5,900  Level Indianapolis Center
07:51AM 39.4406 -82.5331 276° West 140 161 5,900  Level Indianapolis Center
07:51AM 39.4406 -82.5364 270° West 140 161 5,900  Level Indianapolis Center
07:52AM 39.4447 -82.5825 277° West 139 160 5,900  Level Indianapolis Center
07:52AM 39.4464 -82.5861 301° West 137 158 5,900  Level Indianapolis Center
07:53AM 39.4506 -82.6328 277° West 135 155 5,900  Level Indianapolis Center
07:54AM 39.4533 -82.6797 274° West 136 157 5,900  Level Indianapolis Center
07:54AM 39.4542 -82.6822 293° West 137 158 5,900  Level Indianapolis Center
07:55AM 39.4578 -82.7283 276° West 136 157 5,900  Level Indianapolis Center
07:55AM 39.4578 -82.7342 270° West 137 158 5,900  Level Indianapolis Center
07:56AM 39.4608 -82.7747 276° West 133 153 5,900  Level Indianapolis Center
07:56AM 39.4617 -82.7836 277° West 134 154 5,900  Level Indianapolis Center
07:57AM 39.4658 -82.8275 277° West 134 154 5,900  Level Indianapolis Center
07:57AM 39.4650 -82.8233 105° East 134 154 5,900  Level Indianapolis Center
07:58AM 39.4686 -82.8717 276° West 132 152 5,900  Level Indianapolis Center
07:59AM 39.4739 -82.9183 278° West 125 144 6,000 60 Climbing Indianapolis Center
07:59AM 39.4733 -82.9189 218° Southwest 132 152 6,000  Level Indianapolis Center
08:00AM 39.4783 -82.9731 277° West 132 152 6,000  Level Indianapolis Center
08:01AM 39.4811 -83.0197 274° West 136 157 6,000  Level Indianapolis Center
08:01AM 39.4831 -83.0203 348° North 132 152 6,000  Level Indianapolis Center
08:02AM 39.4850 -83.0664 273° West 133 153 6,000  Level Indianapolis Center
08:02AM 39.4856 -83.0692 285° West 135 155 6,000 -120 Level Indianapolis Center
08:03AM 39.4906 -83.1189 277° West 137 158 5,900 -120 Descending Indianapolis Center
08:03AM 39.4903 -83.1169 100° East 135 155 5,900  Level Indianapolis Center
08:04AM 39.4942 -83.1656 276° West 134 154 5,900  Level Indianapolis Center
08:04AM 39.4942 -83.1656 276° West 135 155 5,900  Level Indianapolis Center
08:06AM 39.5003 -83.2150 279° West 134 154 5,900  Level Indianapolis Center
08:06AM 39.5039 -83.2622 276° West 135 155 5,900  Level Indianapolis Center
08:07AM 39.5028 -83.2606 131° Southeast 133 153 5,900 60 Level Indianapolis Center
08:07AM 39.5072 -83.3114 276° West 135 155 6,000 60 Climbing Indianapolis Center
08:08AM 39.5083 -83.3097 49° Northeast 136 157 6,000  Level Indianapolis Center
08:08AM 39.5131 -83.3586 277° West 133 153 6,000  Level Indianapolis Center
08:09AM 39.5122 -83.3581 153° Southeast 135 155 6,000  Level Indianapolis Center
08:09AM 39.5167 -83.4081 277° West 136 157 6,000  Level Indianapolis Center
08:10AM 39.5169 -83.4058 81° East 135 155 6,000  Level Indianapolis Center
08:10AM 39.5219 -83.4606 277° West 136 157 6,000  Level Indianapolis Center
08:11AM 39.5219 -83.4633 270° West 134 154 6,000  Level Indianapolis Center
08:12AM 39.5236 -83.5069 273° West 132 152 6,000  Level Indianapolis Center
08:12AM 39.5239 -83.5028 85° East 135 155 6,000  Level Indianapolis Center
08:13AM 39.5281 -83.5592 275° West 133 153 6,000  Level Indianapolis Center
08:14AM 39.5308 -83.6006 275° West 131 151 6,000  Level Indianapolis Center
08:14AM 39.5317 -83.6064 280° West 132 152 6,000  Level Indianapolis Center
08:15AM 39.5364 -83.6503 278° West 134 154 6,000  Level Indianapolis Center
08:15AM 39.5361 -83.6539 264° West 132 152 6,000  Level Indianapolis Center
08:16AM 39.5378 -83.6994 273° West 134 154 6,000  Level Indianapolis Center
08:16AM 39.5392 -83.7014 313° West 132 152 6,000  Level Indianapolis Center
08:17AM 39.5414 -83.7461 274° West 133 153 6,000  Level Indianapolis Center
08:17AM 39.5425 -83.7489 297° West 132 152 6,000  Level Indianapolis Center
08:18AM 39.5450 -83.7931 274° West 130 150 6,000  Level Indianapolis Center
08:18AM 39.5464 -83.7964 298° West 132 152 6,000 -120 Level Indianapolis Center
08:18AM 39.5489 -83.8372 275° West 133 153 5,900  Descending Indianapolis Center
08:19AM 39.5494 -83.8439 276° West 132 152 6,000  Climbing Indianapolis Center
08:19AM 39.5544 -83.8844 279° West 135 155 5,900 -120 Descending Indianapolis Center
08:20AM 39.5533 -83.8919 259° West 133 153 5,900 60 Level Indianapolis Center
08:21AM 39.5581 -83.9311 279° West 132 152 6,000 60 Climbing Indianapolis Center
08:21AM 39.5583 -83.9497 271° West 134 154 6,000  Level Indianapolis Center
08:22AM 39.5611 -83.9833 276° West 135 155 6,000  Level Indianapolis Center
08:22AM 39.5622 -83.9978 276° West 135 155 6,000  Level Indianapolis Center
08:23AM 39.5644 -84.0300 275° West 134 154 6,000  Level Indianapolis Center
08:23AM 39.5656 -84.0467 275° West 135 155 6,000  Level Indianapolis Center
08:24AM 39.5681 -84.0769 276° West 136 157 6,000  Level Indianapolis Center
08:24AM 39.5694 -84.0942 276° West 134 154 6,000  Level Indianapolis Center
08:25AM 39.5728 -84.1322 276° West 135 155 6,000  Level Indianapolis Center
08:25AM 39.5725 -84.1425 268° West 134 154 6,000  Level Indianapolis Center
08:26AM 39.5758 -84.1817 276° West 135 155 6,000  Level Indianapolis Center
08:26AM 39.5764 -84.1911 274° West 135 155 6,000  Level Indianapolis Center
08:27AM 39.5792 -84.2286 276° West 132 152 6,000  Level Indianapolis Center
08:27AM 39.5808 -84.2386 282° West 134 154 6,000  Level Indianapolis Center
08:28AM 39.5825 -84.2781 273° West 134 154 6,000  Level Indianapolis Center
08:28AM 39.5839 -84.2875 281° West 135 155 6,000  Level Indianapolis Center
08:29AM 39.5858 -84.3250 274° West 131 151 6,000  Level Indianapolis Center
08:29AM 39.5872 -84.3331 283° West 132 152 6,000  Level Indianapolis Center
08:30AM 39.5894 -84.3692 275° West 126 145 6,000  Level Indianapolis Center
08:30AM 39.5917 -84.3869 279° West 129 148 6,000  Level Indianapolis Center
08:31AM 39.5944 -84.4189 276° West 130 150 6,000  Level Indianapolis Center
08:31AM 39.5953 -84.4342 274° West 129 148 6,000  Level Indianapolis Center
08:32AM 39.5978 -84.4658 276° West 132 152 6,000  Level Indianapolis Center
08:32AM 39.5992 -84.4819 276° West 132 152 6,000  Level Indianapolis Center
08:33AM 39.6011 -84.5128 275° West 131 151 6,000  Level Indianapolis Center
08:33AM 39.6033 -84.5289 280° West 132 152 6,000  Level Indianapolis Center
08:34AM 39.6044 -84.5594 273° West 133 153 6,000  Level Indianapolis Center
08:34AM 39.6064 -84.5767 278° West 133 153 6,000  Level Indianapolis Center
08:35AM 39.6078 -84.6064 273° West 134 154 6,000  Level Indianapolis Center
08:35AM 39.6097 -84.6242 278° West 133 153 6,000  Level Indianapolis Center
08:36AM 39.6128 -84.6564 277° West 135 155 6,000  Level Indianapolis Center
08:36AM 39.6131 -84.6728 271° West 135 155 6,000  Level Indianapolis Center
08:37AM 39.6156 -84.7086 275° West 135 155 6,000  Level Indianapolis Center
08:37AM 39.6169 -84.7214 278° West 135 155 6,000  Level Indianapolis Center
08:38AM 39.6183 -84.7581 273° West 135 155 6,000  Level Indianapolis Center
08:38AM 39.6192 -84.7692 276° West 134 154 6,000  Level Indianapolis Center
08:39AM 39.6236 -84.8056 279° West 133 153 6,000  Level Indianapolis Center
08:39AM 39.6239 -84.8258 271° West 133 153 6,000  Level Indianapolis Center
08:40AM 39.6250 -84.8492 274° West 132 152 6,000  Level Indianapolis Center
08:40AM 39.6269 -84.8731 276° West 132 152 6,000  Level Indianapolis Center
08:41AM 39.6303 -84.8967 280° West 132 152 6,000  Level Indianapolis Center
08:41AM 39.6319 -84.9142 277° West 132 152 6,000  Level Indianapolis Center
08:42AM 39.6333 -84.9436 274° West 132 152 6,000  Level Indianapolis Center
08:42AM 39.6350 -84.9708 275° West 133 153 6,000  Level Indianapolis Center
08:43AM 39.6381 -85.0172 275° West 131 151 6,000  Level Indianapolis Center
08:44AM 39.6414 -85.0644 275° West 131 151 6,000  Level Indianapolis Center
08:45AM 39.6439 -85.1117 274° West 132 152 6,000  Level Indianapolis Center
08:46AM 39.6475 -85.1586 276° West 131 151 6,000  Level Indianapolis Center
08:47AM 39.6506 -85.2056 275° West 131 151 6,000  Level Indianapolis Center
08:48AM 39.6544 -85.2539 276° West 133 153 6,000  Level Indianapolis Center
08:50AM 39.6567 -85.3028 273° West 135 155 6,000  Level Indianapolis Center
08:51AM 39.6614 -85.3586 276° West 133 153 6,000  Level Indianapolis Center
08:52AM 39.6678 -85.4056 280° West 132 152 6,000  Level Indianapolis Center
08:53AM 39.6736 -85.4431 281° West 132 152 6,000  Level Indianapolis Center
08:54AM 39.6811 -85.4956 281° West 132 152 6,000  Level Indianapolis Center
08:55AM 39.6892 -85.5461 282° West 133 153 6,000  Level Indianapolis Center
08:56AM 39.6967 -85.5939 282° West 134 154 6,000 -420 Level Indianapolis Center
08:57AM 39.7056 -85.6442 283° West 138 159 5,200 -660 Descending Indianapolis Center
08:58AM 39.7131 -85.6956 281° West 143 165 4,700 -540 Descending Indianapolis Center
08:59AM 39.7219 -85.7594 280° West 147 169 4,100 -360 Descending Indianapolis Center
09:00AM 39.7300 -85.8083 282° West 145 167 4,000 -60 Descending Indianapolis Center
09:01AM 39.7367 -85.8561 280° West 139 160 4,000 -300 Level Indianapolis Center
09:02AM 39.7358 -85.9067 269° West 139 160 3,500 -300 Descending Indianapolis Center
09:03AM 39.7347 -85.9589 268° West 140 161 3,400 -300 Descending Indianapolis Center
09:04AM 39.7381 -86.0128 275° West 150 173 3,000 -240 Descending Indianapolis Center
09:05AM 39.7400 -86.0617 273° West 140 161 3,000 -120 Level Indianapolis Center
09:06AM 39.7408 -86.1122 271° West 140 161 2,800 -300 Descending Indianapolis Center
09:07AM 39.7392 -86.1747 268° West 142 163 2,500 -480 Descending Indianapolis Center
09:08AM 39.7356 -86.2269 265° West 144 166 1,900 -660 Descending Indianapolis Center
09:09AM 39.7281 -86.2672 256° West 132 152 1,200 -540 Descending Indianapolis Center
09:10AM 39.7172 -86.2839 230° Southwest 100 115 800 -240 Descending Indianapolis Center
09:11AM 39.7075 -86.2922 213° Southwest 80 92 800  Level Indianapolis Center